• Join FlightAware (Why Join?)
  • Login
  • US Flag 
02:36AM EDT


 

Airport Tracker/Info


-or-


 

Live Flight TrackerFlight Track Log ✈ SCX8701 ✈ 14-Aug-2014 ✈ KDSM - KLAS

Flight Track Log - Related Links

Times and Time Zones

All times are in EDT time to prevent confusion due to time zone crossing. See the SCX8701 flight status page for this flight to view local times or setup timezone preferences in your user account.

Time Position Orientation Groundspeed Altitude Reporting Facility
EDT Latitude Longitude Course Direction KTS MPH feet Rate Location/Type
01:28PM 41.5242 -93.6781 237° Southwest 179 206 1,700  Level Minneapolis Center
01:29PM 41.4969 -93.7339 237° Southwest 189 217 3,100 2,040 Climbing Minneapolis Center
01:30PM 41.4597 -93.8131 238° Southwest 243 280 5,400 2,280 Climbing Minneapolis Center
01:36PM 41.3221 -94.5137 261° West 402 463 18,800 2,280 Climbing FlightAware ADS-B (KFOD)
01:37PM 41.3086 -94.6246 261° West 409 471 20,200 1,800 Climbing FlightAware ADS-B (KFOD)
01:37PM 41.3013 -94.6849 261° West 415 478 21,400 1,860 Climbing FlightAware ADS-B (KFOD)
01:38PM 41.2852 -94.8149 261° West 420 483 22,600 1,740 Climbing FlightAware ADS-B (KFOD)
01:39PM 41.2600 -95.0172 261° West 427 491 24,800 1,680 Climbing FlightAware ADS-B
01:39PM 41.2582 -95.0311 261° West 426 490 25,000 1,680 Climbing FlightAware ADS-B (KFOD)
01:40PM 41.2495 -95.1002 261° West 431 496 25,700 1,500 Climbing FlightAware ADS-B
01:40PM 41.2459 -95.1290 260° West 432 497 26,000 1,500 Climbing FlightAware ADS-B (KFOD)
01:40PM 41.2393 -95.1807 260° West 434 499 26,500 1,560 Climbing FlightAware ADS-B
01:41PM 41.2342 -95.2202 260° West 439 505 26,900 1,200 Climbing FlightAware ADS-B (KFOD)
01:41PM 41.2291 -95.2600 260° West 440 506 27,100 1,020 Climbing FlightAware ADS-B
01:41PM 41.2185 -95.3423 260° West 447 514 27,700 1,080 Climbing FlightAware ADS-B
01:42PM 41.2067 -95.4336 260° West 454 522 28,300 900 Climbing FlightAware ADS-B
01:42PM 41.1959 -95.5167 260° West 461 531 28,700 960 Climbing FlightAware ADS-B
01:43PM 41.1849 -95.6010 260° West 465 535 29,300 1,320 Climbing FlightAware ADS-B
01:43PM 41.1736 -95.6855 260° West 461 531 30,100 1,680 Climbing FlightAware ADS-B
01:44PM 41.1628 -95.7583 256° West 458 527 30,900 1,560 Climbing FlightAware ADS-B
01:44PM 41.1471 -95.8420 256° West 456 525 31,600 1,200 Climbing FlightAware ADS-B
01:45PM 41.1316 -95.9244 256° West 456 525 32,200 1,140 Climbing FlightAware ADS-B
01:45PM 41.1161 -96.0065 256° West 457 526 32,800 1,260 Climbing FlightAware ADS-B
01:46PM 41.1008 -96.0876 256° West 455 524 33,500 1,140 Climbing FlightAware ADS-B
01:46PM 41.0851 -96.1698 256° West 453 521 34,000 480 Climbing FlightAware ADS-B
01:47PM 41.0695 -96.2519 256° West 452 520 34,000 660 Level FlightAware ADS-B
01:47PM 41.0537 -96.3337 256° West 446 513 34,700 1,080 Climbing FlightAware ADS-B
01:49PM 41.0171 -96.5224 256° West 442 509 35,900 720 Climbing FlightAware ADS-B
01:49PM 41.0015 -96.6024 255° West 442 509 36,000 60 Climbing FlightAware ADS-B
01:50PM 40.9775 -96.7245 255° West 441 507 36,000  Level FlightAware ADS-B
01:51PM 40.9464 -96.8789 255° West 443 510 36,000  Level Minneapolis Center
01:52PM 40.9142 -97.0347 255° West 442 509 36,000  Level Minneapolis Center
01:53PM 40.8831 -97.1908 255° West 442 509 36,000  Level Minneapolis Center
01:54PM 40.8514 -97.3469 255° West 442 509 36,000  Level Minneapolis Center
01:55PM 40.8183 -97.5072 255° West 442 509 36,000  Level Minneapolis Center
01:56PM 40.7864 -97.6644 255° West 442 509 36,000  Level Minneapolis Center
01:57PM 40.7478 -97.8528 255° West 442 509 36,000  Level Minneapolis Center
01:58PM 40.7153 -98.0097 255° West 442 509 36,000  Level Minneapolis Center
01:59PM 40.6822 -98.1667 255° West 442 509 36,000  Level Minneapolis Center
02:00PM 40.6492 -98.3247 255° West 442 509 36,000  Level Minneapolis Center
02:01PM 40.6147 -98.4828 254° West 443 510 36,000  Level Minneapolis Center
02:02PM 40.5806 -98.6403 254° West 444 511 36,000  Level Minneapolis Center
02:03PM 40.5464 -98.7978 254° West 444 511 36,000  Level Minneapolis Center
02:04PM 40.5056 -98.9856 254° West 444 511 36,000  Level Minneapolis Center
02:05PM 40.4714 -99.1414 254° West 444 511 36,000  Level Minneapolis Center
02:06PM 40.4583 -99.2025 254° West 443 510 36,000  Level Denver Center
02:07PM 40.4233 -99.3575 254° West 441 507 36,000  Level Denver Center
02:08PM 40.3892 -99.5125 254° West 441 507 36,000  Level Denver Center
02:09PM 40.3475 -99.6958 253° West 439 505 36,000  Level Denver Center
02:10PM 40.3133 -99.8497 254° West 439 505 36,000  Level Denver Center
02:16PM 40.1076 -100.7360 253° West 436 502 36,000  Level FlightAware ADS-B (KEIK)
02:16PM 40.0902 -100.8095 253° West 435 501 36,000  Level FlightAware ADS-B (KEIK)
02:17PM 40.0682 -100.9014 253° West 436 502 36,000  Level FlightAware ADS-B (KEIK)
02:18PM 40.0367 -101.0332 253° West 437 503 36,000  Level FlightAware ADS-B (KEIK)
02:18PM 40.0171 -101.1149 253° West 437 503 36,000  Level FlightAware ADS-B (KEIK)
02:19PM 39.9914 -101.2209 252° West 437 503 36,000  Level FlightAware ADS-B (KEIK)
02:20PM 39.9681 -101.3167 252° West 437 503 36,000  Level FlightAware ADS-B (KEIK)
02:20PM 39.9465 -101.4055 252° West 437 503 36,000  Level FlightAware ADS-B (KEIK)
02:21PM 39.9305 -101.4706 252° West 438 504 36,000  Level FlightAware ADS-B (KEIK)
02:22PM 39.8945 -101.6176 252° West 438 504 36,000  Level FlightAware ADS-B (KEIK)
02:22PM 39.8765 -101.6908 252° West 438 504 36,000  Level FlightAware ADS-B (KEIK)
02:23PM 39.8581 -101.7651 252° West 438 504 36,000  Level FlightAware ADS-B (KEIK)
02:23PM 39.8391 -101.8416 252° West 437 503 36,000  Level FlightAware ADS-B (KEIK)
02:24PM 39.8193 -101.9218 252° West 438 504 36,000  Level FlightAware ADS-B (KEIK)
02:24PM 39.8010 -101.9949 252° West 437 503 36,000  Level FlightAware ADS-B (KEIK)
02:25PM 39.7736 -102.1044 252° West 436 502 36,000  Level FlightAware ADS-B (KEIK)
02:26PM 39.7545 -102.1801 252° West 435 501 36,000  Level FlightAware ADS-B (KEIK)
02:26PM 39.7275 -102.2869 252° West 435 501 36,000  Level FlightAware ADS-B (KEIK)
02:27PM 39.7085 -102.3616 252° West 434 499 36,000  Level FlightAware ADS-B (KEIK)
02:27PM 39.6918 -102.4276 252° West 433 498 36,000  Level FlightAware ADS-B (KEIK)
02:28PM 39.6711 -102.5083 252° West 433 498 36,000  Level FlightAware ADS-B (KEIK)
02:28PM 39.6499 -102.5912 252° West 433 498 36,000  Level FlightAware ADS-B (KEIK)
02:29PM 39.6315 -102.6629 252° West 434 499 36,000  Level FlightAware ADS-B (KEIK)
02:29PM 39.6084 -102.7524 252° West 435 501 36,000  Level FlightAware ADS-B (KANK)
02:30PM 39.5873 -102.8343 252° West 436 502 36,000  Level FlightAware ADS-B (KEIK)
02:30PM 39.5674 -102.9112 251° West 437 503 36,000  Level FlightAware ADS-B (KEIK)
02:31PM 39.5482 -102.9846 251° West 437 503 36,000  Level FlightAware ADS-B (KEIK)
02:32PM 39.5221 -103.0845 252° West 439 505 36,000  Level FlightAware ADS-B (KEIK)
02:32PM 39.5030 -103.1576 251° West 438 504 36,000  Level FlightAware ADS-B (KEIK)
02:33PM 39.4749 -103.2650 251° West 438 504 36,000  Level FlightAware ADS-B (KEIK)
02:33PM 39.4503 -103.3581 251° West 440 506 36,000  Level FlightAware ADS-B (KANK)
02:34PM 39.4289 -103.4389 251° West 440 506 36,000  Level FlightAware ADS-B (KEIK)
02:35PM 39.4026 -103.5378 251° West 439 505 36,000  Level FlightAware ADS-B (KANK)
02:35PM 39.3829 -103.6111 251° West 440 506 36,000  Level FlightAware ADS-B (KANK)
02:36PM 39.3639 -103.6823 251° West 438 504 36,000  Level FlightAware ADS-B (KEIK)
02:36PM 39.3467 -103.7468 251° West 436 502 36,000  Level FlightAware ADS-B (KCOS)
02:37PM 39.3139 -103.8690 251° West 436 502 36,000  Level FlightAware ADS-B (KEIK)
02:38PM 39.2923 -103.9487 251° West 436 502 36,000  Level FlightAware ADS-B (KFLY)
02:38PM 39.2685 -104.0363 251° West 436 502 36,000  Level FlightAware ADS-B (KANK)
02:39PM 39.2374 -104.1502 251° West 436 502 36,000  Level FlightAware ADS-B (KCOS)
02:40PM 39.2106 -104.2486 251° West 435 501 36,000  Level FlightAware ADS-B (KFLY)
02:40PM 39.1910 -104.3203 251° West 435 501 36,000  Level FlightAware ADS-B (KEIK)
02:41PM 39.1694 -104.3986 251° West 434 499 36,000  Level FlightAware ADS-B (KFLY)
02:41PM 39.1473 -104.4786 251° West 434 499 36,000  Level FlightAware ADS-B (KEIK)
02:42PM 39.1277 -104.5497 250° West 433 498 36,000  Level FlightAware ADS-B (KAPA)
02:42PM 39.1076 -104.6223 250° West 432 497 36,000  Level FlightAware ADS-B (KCOS)
02:43PM 39.0929 -104.6753 250° West 432 497 36,000  Level FlightAware ADS-B
02:43PM 39.0628 -104.7827 250° West 433 498 36,000  Level FlightAware ADS-B (KEIK)
02:44PM 39.0424 -104.8554 250° West 432 497 36,000  Level FlightAware ADS-B (KEIK)
02:44PM 39.0212 -104.9307 250° West 432 497 36,000  Level FlightAware ADS-B (KAPA)
02:45PM 38.9982 -105.0129 250° West 433 498 36,000  Level FlightAware ADS-B (KCOS)
02:45PM 38.9709 -105.1094 250° West 432 497 36,000  Level FlightAware ADS-B (KCOS)
02:46PM 38.9540 -105.1688 250° West 432 497 36,000  Level FlightAware ADS-B (KCOS)
02:47PM 38.9296 -105.2548 250° West 431 496 36,000  Level FlightAware ADS-B (KEIK)
02:47PM 38.9033 -105.3474 250° West 431 496 36,000  Level FlightAware ADS-B (KEIK)
02:48PM 38.8762 -105.4418 250° West 431 496 36,000  Level FlightAware ADS-B (KCOS)
02:48PM 38.8579 -105.5053 250° West 431 496 36,000  Level FlightAware ADS-B (KEIK)
02:49PM 38.8239 -105.6233 250° West 432 497 36,000  Level FlightAware ADS-B
02:50PM 38.7995 -105.7078 250° West 432 497 36,000  Level FlightAware ADS-B (KAPA)
02:50PM 38.7769 -105.7860 250° West 431 496 36,000  Level FlightAware ADS-B (KEIK)
02:51PM 38.7537 -105.8657 250° West 431 496 36,000  Level FlightAware ADS-B (KEIK)
02:51PM 38.7328 -105.9372 250° West 430 495 36,000  Level FlightAware ADS-B (KMTJ)
02:52PM 38.7154 -106.0095 254° West 430 495 36,000  Level FlightAware ADS-B (KANK)
02:52PM 38.6985 -106.0856 254° West 431 496 36,000  Level FlightAware ADS-B (KMTJ)
02:53PM 38.6823 -106.1583 254° West 431 496 36,000  Level FlightAware ADS-B (KMTJ)
02:53PM 38.6631 -106.2428 254° West 430 495 36,000  Level FlightAware ADS-B (KMTJ)
02:54PM 38.6452 -106.3215 254° West 431 496 36,000  Level FlightAware ADS-B (KEIK)
02:54PM 38.6274 -106.4001 254° West 431 496 36,000  Level FlightAware ADS-B (KMTJ)
02:55PM 38.6108 -106.4728 254° West 430 495 36,000  Level FlightAware ADS-B (KMTJ)
02:55PM 38.5935 -106.5483 254° West 431 496 36,000  Level FlightAware ADS-B (KMTJ)
02:56PM 38.5768 -106.6207 254° West 431 496 36,000  Level FlightAware ADS-B (KGJT)
02:56PM 38.5616 -106.6866 254° West 432 497 36,000  Level FlightAware ADS-B (KEIK)
02:57PM 38.5395 -106.7825 254° West 432 497 36,000  Level FlightAware ADS-B (KMTJ)
02:57PM 38.5224 -106.8565 254° West 433 498 36,000  Level FlightAware ADS-B (KMTJ)
02:58PM 38.5052 -106.9304 253° West 433 498 36,000  Level FlightAware ADS-B (KGJT)
02:59PM 38.4888 -107.0005 254° West 434 499 36,000  Level FlightAware ADS-B (KMTJ)
02:59PM 38.4680 -107.0896 253° West 433 498 36,000  Level FlightAware ADS-B (KMTJ)
03:00PM 38.4475 -107.1767 253° West 433 498 36,000  Level FlightAware ADS-B (KMTJ)
03:00PM 38.4299 -107.2513 253° West 432 497 36,000  Level FlightAware ADS-B (KMTJ)
03:01PM 38.4114 -107.3297 253° West 432 497 36,000  Level FlightAware ADS-B (KMTJ)
03:01PM 38.3929 -107.4078 253° West 433 498 36,000  Level FlightAware ADS-B (KMTJ)
03:02PM 38.3710 -107.4994 253° West 431 496 36,000  Level FlightAware ADS-B (KANK)
03:02PM 38.3532 -107.5737 253° West 431 496 36,000  Level FlightAware ADS-B (KMTJ)
03:03PM 38.3313 -107.6649 253° West 430 495 36,000  Level FlightAware ADS-B (KMTJ)
03:04PM 38.3136 -107.7377 250° West 429 494 36,000  Level FlightAware ADS-B (KMTJ)
03:04PM 38.2929 -107.8021 247° West 427 491 36,000  Level FlightAware ADS-B (KMTJ)
03:05PM 38.2659 -107.8849 248° West 426 490 36,000  Level FlightAware ADS-B (KANK)
03:05PM 38.2387 -107.9615 245° Southwest 424 488 36,000  Level FlightAware ADS-B (KANK)
03:06PM 38.2137 -108.0301 245° Southwest 423 487 36,000  Level FlightAware ADS-B (KANK)
03:06PM 38.1998 -108.0685 246° West 422 486 36,000  Level FlightAware ADS-B (KMTJ)
03:07PM 38.1613 -108.1758 246° West 420 483 36,000  Level FlightAware ADS-B (KMTJ)
03:07PM 38.1371 -108.2429 245° Southwest 419 482 36,000  Level FlightAware ADS-B (KMTJ)
03:08PM 38.1209 -108.2879 245° Southwest 418 481 36,000  Level FlightAware ADS-B (KMTJ)
03:08PM 38.0939 -108.3610 243° Southwest 416 479 36,000  Level FlightAware ADS-B (KMTJ)
03:09PM 38.0676 -108.4246 242° Southwest 415 478 36,000  Level FlightAware ADS-B (KMTJ)
03:09PM 38.0358 -108.5009 242° Southwest 415 478 36,000  Level FlightAware ADS-B (KMTJ)
03:10PM 38.0094 -108.5643 243° Southwest 414 476 36,000  Level FlightAware ADS-B (KMTJ)
03:10PM 37.9836 -108.6271 242° Southwest 413 475 36,000  Level FlightAware ADS-B (KMTJ)
03:11PM 37.9554 -108.6954 243° Southwest 412 474 36,000  Level FlightAware ADS-B (KMTJ)
03:11PM 37.9237 -108.7735 243° Southwest 411 473 36,000  Level FlightAware ADS-B (KMTJ)
03:12PM 37.8981 -108.8374 243° Southwest 413 475 36,000  Level FlightAware ADS-B (KMTJ)
03:12PM 37.8697 -108.9083 244° Southwest 414 476 36,000  Level FlightAware ADS-B (KMTJ)
03:13PM 37.8485 -108.9640 245° Southwest 413 475 36,000  Level FlightAware ADS-B (KMTJ)
03:13PM 37.8231 -109.0357 247° West 413 475 36,000  Level FlightAware ADS-B (KMTJ)
03:14PM 37.8047 -109.0878 243° Southwest 412 474 36,000  Level FlightAware ADS-B (KMTJ)
03:14PM 37.7686 -109.1778 243° Southwest 411 473 36,000  Level FlightAware ADS-B (KMTJ)
03:15PM 37.7399 -109.2495 243° Southwest 411 473 36,000  Level FlightAware ADS-B (KMTJ)
03:16PM 37.7153 -109.3222 252° West 413 475 36,000  Level FlightAware ADS-B (KMTJ)
03:16PM 37.7000 -109.3904 257° West 415 478 36,000  Level FlightAware ADS-B (KMTJ)
03:17PM 37.6834 -109.4680 254° West 414 476 36,000  Level FlightAware ADS-B (KMTJ)
03:17PM 37.6668 -109.5406 254° West 414 476 36,000  Level FlightAware ADS-B (KMTJ)
03:18PM 37.6489 -109.6207 255° West 414 476 36,000  Level FlightAware ADS-B (KMTJ)
03:18PM 37.6277 -109.7177 255° West 415 478 36,000  Level FlightAware ADS-B
03:19PM 37.6111 -109.7935 255° West 415 478 36,000  Level FlightAware ADS-B (KMTJ)
03:19PM 37.5939 -109.8720 255° West 415 478 36,000  Level FlightAware ADS-B
03:20PM 37.5750 -109.9575 254° West 416 479 36,000 -240 Level FlightAware ADS-B (KMTJ)
03:21PM 37.5580 -110.0337 254° West 415 478 35,700 -780 Descending FlightAware ADS-B (KMTJ)
03:22PM 37.5286 -110.1651 254° West 423 487 34,900 -1,080 Descending FlightAware ADS-B
03:23PM 37.4947 -110.3168 254° West 424 488 33,800 -1,020 Descending FlightAware ADS-B
03:24PM 37.4629 -110.4580 254° West 413 475 32,800 -900 Descending FlightAware ADS-B
03:25PM 37.4302 -110.6009 254° West 408 470 32,000 -420 Descending FlightAware ADS-B
03:26PM 37.3953 -110.7536 254° West 428 493 32,000  Level FlightAware ADS-B
03:27PM 37.3610 -110.9024 254° West 428 493 32,000  Level FlightAware ADS-B
03:28PM 37.3243 -111.0609 254° West 428 493 32,000  Level FlightAware ADS-B
03:29PM 37.2925 -111.1970 254° West 428 493 32,000  Level FlightAware ADS-B
03:30PM 37.2573 -111.3473 254° West 429 494 32,000  Level FlightAware ADS-B
03:31PM 37.2200 -111.5056 254° West 432 497 32,000  Level FlightAware ADS-B
03:33PM 37.1459 -111.8160 253° West 433 498 32,000  Level FlightAware ADS-B
03:34PM 37.1346 -111.8627 253° West 433 498 32,000  Level FlightAware ADS-B
03:35PM 37.1015 -112.1073 264° West 439 505 32,000  Level FlightAware ADS-B
03:36PM 37.0913 -112.2769 266° West 439 505 32,000 -240 Level FlightAware ADS-B
03:37PM 37.0814 -112.4451 265° West 434 499 31,500 -1,260 Descending FlightAware ADS-B
03:38PM 37.0705 -112.5894 265° West 451 519 29,500 -1,740 Descending FlightAware ADS-B
03:39PM 37.0415 -112.7553 253° West 446 513 28,000 -780 Descending FlightAware ADS-B
03:40PM 36.9949 -112.8910 247° West 442 509 28,000 -540 Level FlightAware ADS-B
03:42PM 36.8973 -113.1723 247° West 423 487 26,400 -840 Descending FlightAware ADS-B (KSGU)
03:43PM 36.8689 -113.2540 247° West 417 480 25,900 -1,080 Descending FlightAware ADS-B (KSGU)
03:44PM 36.8317 -113.3605 247° West 414 476 24,900 -1,020 Descending FlightAware ADS-B (KSGU)
03:44PM 36.8052 -113.4365 247° West 414 476 24,500 -900 Descending FlightAware ADS-B (KSGU)
03:45PM 36.7706 -113.5348 246° West 412 474 23,700 -1,080 Descending FlightAware ADS-B (KSGU)
03:46PM 36.7208 -113.6762 246° West 405 466 22,600 -1,020 Descending FlightAware ADS-B (KSGU)
03:48PM 36.6462 -113.8864 246° West 405 466 21,000 -900 Descending FlightAware ADS-B (KSGU)
03:48PM 36.6317 -113.9261 246° West 401 461 20,700 -1,380 Descending Los Angeles Center
03:49PM 36.5897 -114.0472 247° West 386 444 18,900 -2,100 Descending Los Angeles Center
03:51PM 36.5303 -114.1825 241° Southwest 373 429 16,400 -2,340 Descending Los Angeles Center
03:51PM 36.5022 -114.2475 242° Southwest 366 421 15,200 -2,040 Descending Los Angeles Center
03:52PM 36.4803 -114.2950 240° Southwest 358 412 14,300 -2,100 Descending Los Angeles Center
03:52PM 36.4586 -114.3428 241° Southwest 343 395 13,300 -1,860 Descending Los Angeles Center
03:53PM 36.4319 -114.3975 239° Southwest 350 403 12,400 -1,200 Descending Los Angeles Center
03:53PM 36.4158 -114.4325 240° Southwest 333 383 12,200 -420 Descending Los Angeles Center
03:54PM 36.3819 -114.4814 229° Southwest 304 350 12,000 -360 Descending Los Angeles Center
03:54PM 36.3481 -114.4878 189° South 264 304 11,800 -600 Descending Los Angeles Center
03:55PM 36.3114 -114.4886 181° South 255 293 11,400 -900 Descending Los Angeles Center
03:55PM 36.2858 -114.4900 183° South 240 276 11,000 -1,080 Descending Los Angeles Center
03:56PM 36.2444 -114.4908 181° South 244 281 10,300 -1,200 Descending Los Angeles Center
03:56PM 36.2217 -114.4931 185° South 234 269 9,800 -1,260 Descending Los Angeles Center
03:57PM 36.1811 -114.4964 184° South 233 268 9,000 -1,440 Descending Los Angeles Center
03:57PM 36.1675 -114.5222 237° Southwest 232 267 8,400 -1,020 Descending Los Angeles Center
03:58PM 36.1419 -114.5781 240° Southwest 232 267 8,000 -420 Descending Los Angeles Center
03:58PM 36.1364 -114.5967 250° West 228 262 8,000  Level Los Angeles Center
03:59PM 36.1242 -114.6550 255° West 231 266 8,000 -180 Level Los Angeles Center
03:59PM 36.1181 -114.6803 253° West 235 270 7,800 -540 Descending Los Angeles Center
04:00PM 36.0994 -114.7611 254° West 241 277 7,300 -300 Descending Los Angeles Center
04:01PM 36.0858 -114.8119 252° West 236 272 7,300 -300 Level Los Angeles Center
04:01PM 36.0814 -114.8364 257° West 231 266 7,000 -1,380 Descending Los Angeles Center
04:02PM 36.0731 -114.8969 260° West 242 278 5,900 -1,500 Descending Los Angeles Center
04:02PM 36.0725 -114.9244 269° West 240 276 5,500 -1,560 Descending Los Angeles Center
04:03PM 36.0739 -114.9822 272° West 229 264 4,300 -1,440 Descending Los Angeles Center
04:03PM 36.0728 -115.0044 266° West 214 246 3,900 -1,080 Descending Los Angeles Center
04:04PM 36.0731 -115.0653 270° West 187 215 3,000 -960 Descending Los Angeles Center
04:05PM 36.0736 -115.1117 271° West 167 192 2,300 -840 Descending Los Angeles Center
04:05PM 36.0725 -115.1214 262° West 156 180 2,200 -600 Descending Los Angeles Center
04:07PM 36.0667 -115.1500 219° Southwest  Level FlightAware Approximate